AirNav   Textron
 
 311 users online  

IA8 Dyersville Area Airport
Dyersville, Iowa, USA

GOING TO DYERSVILLE?


FAA INFORMATION EFFECTIVE 09 NOVEMBER 2017

Location

FAA Identifier: IA8
Lat/Long: 42-29-45.9790N / 091-10-47.4920W
42-29.766317N / 091-10.791533W
42.4961053 / -91.1798589
(estimated)
Elevation: 980 ft. / 299 m (estimated)
Variation: 01E (1995)
From city: 2 miles NW of DYERSVILLE, IA
Time zone: UTC -6 (UTC -5 during Daylight Saving Time)
Zip code: 52040

Airport Operations

Airport use: Open to the public
Activation date: 12/1999
Control tower: no
ARTCC: CHICAGO CENTER
FSS: FORT DODGE FLIGHT SERVICE STATION
NOTAMs facility: FOD (NOTAM-D service available)
Attendance: UNATNDD
Wind indicator: yes
Segmented circle: no
Lights: ACTVT LIRL RY 13/31 - CTAF.

Airport Communications

CTAF: 122.9
WX AWOS-3 at MXO (17 nm S): 119.275 (319-465-6155)

Nearby radio navigation aids

VOR radial/distance  VOR name  Freq  Var
DBQr281/21.6DUBUQUE VORTAC115.8004E

 
NDB name  Hdg/Dist  Freq  Var  ID
WAPSIE086/34.220600EIIB .. .. -...

Airport Services

Runway Information

Runway 11/29

Dimensions: 2700 x 120 ft. / 823 x 37 m
Surface: turf, in fair condition
Runway edge lights: non-standard
CONES WITH LIGHTS.
Runway edge markings: NSTD MKGS RY 11&29; RY EDGES MKD WITH YELLOW CONES, DSPLCD THLDS MKD WITH 3 YELLOW CONES EACH SIDE.
Gradient: W
RUNWAY 11  RUNWAY 29
Elevation: 975.2 ft.963.8 ft.
Gradient: 0.4% UP
Traffic pattern: leftright
Displaced threshold: 200 ft.
APCH 35:1 FM DSPLCD THLD.
175 ft.
APCH 20:1 FM DSPLCD THLD.
Markings: NSTD
Obstructions: 6 ft. gnd, 15 ft. from runway, 60 ft. left of centerline, 2:1 slope to clear15 ft. road, 125 ft. from runway, 8:1 slope to clear

Airport Ownership and Management from official FAA records

Ownership: Privately-owned
Owner: DYERSVILLE AREA AIRPORT
104 5TH ST SE
DYERSVILLE, IA 52040
Phone 563-875-8590
ALTERNATE PHONE NUMBER 563-875-7121.
Manager: DAVID KRAMER
104 5TH ST SE
DYERSVILLE, IA 52040
Phone 563-875-8590

Airport Operational Statistics

Aircraft based on the field: 4
Single engine airplanes: 3
Ultralights: 1
    

Additional Remarks

REMOTE CTLD ACFT INVOF ARPT.

Instrument Procedures

There are no published instrument procedures at IA8.

Some nearby airports with instrument procedures:

KMXO - Monticello Regional Airport (17 nm S)
KDBQ - Dubuque Regional Airport (22 nm E)
KPDC - Prairie du Chien Municipal Airport (31 nm N)
KOQW - Maquoketa Municipal Airport (33 nm SE)
KIIB - Independence Municipal Airport (34 nm W)
 
Loc | Ops | Rwys | IFR | FBO | Links
Com | Nav | Svcs | Stats | Notes


 
Area around IA8 (Dyersville Area Airport)
 
Road maps at: MapQuest Bing Google
 
Aerial photo
WARNING: Photo may not be current or correct
Aerial photo of IA8 (Dyersville Area Airport)
Do you have a better or more recent aerial photo of Dyersville Area Airport that you would like to share? If so, please send us your photo.

 
Sectional chart

 
Airport distance calculator
Flying to Dyersville Area Airport? Find the distance to fly.

From to IA8

Sunrise and sunset
Times for 20-Nov-2017
 Local
(UTC-6)
 Zulu
(UTC)
Morning civil twilight06:3212:32
Sunrise07:0313:03
Sunset16:3822:38
Evening civil twilight17:0823:08

Current date and time
Zulu (UTC)  20-Nov-2017 09:37:29
Local (UTC-6)  20-Nov-2017 03:37:29
 
METAR
KMXO 
17nm S 
200915Z AUTO 16005KT 10SM CLR M00/M03 A2990 RMK AO2
KDBQ 
22nm E 
200853Z AUTO 20010KT 10SM CLR M01/M03 A2989 RMK AO2 SLP135 T10061033 56017
KPDC 
31nm N 
200855Z AUTO 00000KT 10SM CLR 02/M04 A2988 RMK AO2 T00211040
TAF
KDBQ 
22nm E 
200520Z 2006/2106 20009KT P6SM OVC250 FM201500 22014G20KT P6SM SCT250
NOTAMs
Click for the latest NOTAMs
NOTAMs are issued by the DoD/FAA and will open in a separate window not controlled by AirNav.

 

 
 

Would you like to see your business listed on this page?

 If your business provides an interesting product or service to pilots, flight crews, aircraft, or users of the Dyersville Area Airport, you should consider listing it here.  To start the listing process, click on the button below
 
Add a business
 

Other Pages about Dyersville Area Airport

www.dyersvilleairport.com
 
Update a link
 
Copyright © AirNav, LLC. All rights reserved. Privacy Policy  Contact